createdAt,value
2023-07-06T00:00:19.229Z,107.34
2023-07-06T00:01:18.270Z,105.67
2023-07-06T00:02:19.260Z,108.04
2023-07-06T00:03:18.285Z,106.07
2023-07-06T00:04:19.408Z,109.41
2023-07-06T00:05:19.339Z,107.11
2023-07-06T00:06:19.333Z,107.86
2023-07-06T00:07:19.351Z,108.55
2023-07-06T00:08:18.381Z,106.41
2023-07-06T00:09:19.382Z,107.55
2023-07-06T00:10:18.409Z,106.65
2023-07-06T00:11:19.434Z,107.13
2023-07-06T00:12:18.455Z,107.04
2023-07-06T00:13:18.497Z,108.17
2023-07-06T00:14:19.516Z,106.62
2023-07-06T00:15:18.520Z,107.64
2023-07-06T00:16:19.598Z,106.78
2023-07-06T00:17:19.597Z,108.80
2023-07-06T00:18:19.608Z,108.10
2023-07-06T00:19:19.696Z,105.95
2023-07-06T00:20:19.622Z,108.82
2023-07-06T00:21:19.661Z,104.70
2023-07-06T00:22:19.686Z,109.09
2023-07-06T00:23:18.696Z,105.11
2023-07-06T00:24:18.707Z,107.34
2023-07-06T00:25:19.728Z,105.24
2023-07-06T00:26:19.752Z,105.63
2023-07-06T00:27:19.778Z,107.62
2023-07-06T00:28:18.774Z,105.70
2023-07-06T00:29:19.816Z,107.97
2023-07-06T00:30:19.829Z,108.28
2023-07-06T00:31:18.853Z,106.64
2023-07-06T00:32:18.882Z,106.74
2023-07-06T00:33:18.881Z,108.81
2023-07-06T00:34:19.898Z,107.33
2023-07-06T00:35:19.916Z,108.30
2023-07-06T00:36:19.939Z,106.43
2023-07-06T00:37:20.010Z,105.00
2023-07-06T00:38:19.982Z,105.18
2023-07-06T00:39:18.994Z,105.39
2023-07-06T00:40:20.015Z,105.86
2023-07-06T00:41:19.035Z,107.35
2023-07-06T00:42:19.079Z,105.07
2023-07-06T00:43:20.082Z,106.31
2023-07-06T00:44:20.083Z,105.73
2023-07-06T00:45:20.121Z,106.69
2023-07-06T00:46:20.152Z,106.76
2023-07-06T00:47:19.232Z,107.51
2023-07-06T00:48:20.187Z,106.70
2023-07-06T00:49:20.185Z,103.53
2023-07-06T00:50:19.238Z,104.95
2023-07-06T00:51:20.236Z,105.42
2023-07-06T00:52:20.252Z,106.87
2023-07-06T00:53:20.300Z,106.61
2023-07-06T00:54:20.289Z,104.19
2023-07-06T00:55:20.329Z,105.91
2023-07-06T00:56:19.336Z,102.61
2023-07-06T00:57:20.374Z,106.28
2023-07-06T00:58:19.448Z,105.79
2023-07-06T00:59:19.412Z,104.69
2023-07-06T01:00:19.417Z,105.70
2023-07-06T01:01:20.531Z,105.62
2023-07-06T01:02:20.700Z,108.01
2023-07-06T01:03:19.565Z,107.03
2023-07-06T01:04:19.519Z,107.01
2023-07-06T01:05:20.537Z,105.62
2023-07-06T01:06:20.549Z,105.39
2023-07-06T01:07:19.569Z,103.90
2023-07-06T01:08:20.590Z,104.74
2023-07-06T01:09:20.675Z,107.49
2023-07-06T01:10:20.748Z,108.23
2023-07-06T01:11:20.664Z,105.07
2023-07-06T01:12:20.703Z,105.96
2023-07-06T01:13:20.737Z,106.77
2023-07-06T01:14:19.736Z,106.37
2023-07-06T01:15:20.794Z,105.81
2023-07-06T01:16:19.994Z,105.86
2023-07-06T01:17:19.942Z,105.51
2023-07-06T01:18:20.894Z,103.94
2023-07-06T01:19:19.944Z,104.81
2023-07-06T01:20:20.965Z,106.83
2023-07-06T01:21:20.010Z,105.92
2023-07-06T01:22:20.044Z,106.06
2023-07-06T01:23:20.085Z,107.07
2023-07-06T01:24:21.117Z,107.19
2023-07-06T01:25:21.186Z,103.76
2023-07-06T01:26:20.247Z,106.01
2023-07-06T01:27:21.229Z,106.57
2023-07-06T01:28:21.289Z,107.39
2023-07-06T01:29:21.350Z,105.55
2023-07-06T01:30:20.359Z,104.11
2023-07-06T01:31:21.399Z,105.01
2023-07-06T01:32:21.448Z,102.92
2023-07-06T01:33:21.446Z,105.67
2023-07-06T01:34:21.468Z,106.18
2023-07-06T01:35:21.502Z,104.61
2023-07-06T01:36:20.540Z,106.15
2023-07-06T01:37:21.560Z,104.45
2023-07-06T01:38:20.583Z,107.13
2023-07-06T01:39:20.636Z,104.33
2023-07-06T01:40:20.663Z,106.34
2023-07-06T01:41:21.698Z,103.71
2023-07-06T01:42:20.704Z,104.91
2023-07-06T01:43:22.238Z,104.94
2023-07-06T01:44:21.780Z,104.51
2023-07-06T01:45:21.808Z,107.24
2023-07-06T01:46:21.873Z,105.62
2023-07-06T01:47:21.876Z,102.11
2023-07-06T01:48:21.913Z,103.20
2023-07-06T01:49:20.964Z,104.66
2023-07-06T01:50:21.965Z,102.71
2023-07-06T01:51:20.981Z,103.70
2023-07-06T01:52:22.003Z,106.75
2023-07-06T01:53:21.041Z,102.48
2023-07-06T01:54:21.045Z,104.65
2023-07-06T01:55:21.095Z,105.08
2023-07-06T01:56:21.109Z,103.42
2023-07-06T01:57:21.162Z,105.49
2023-07-06T01:58:21.177Z,103.37
2023-07-06T01:59:22.199Z,105.18
2023-07-06T02:00:22.237Z,105.04
2023-07-06T02:01:21.329Z,103.60
2023-07-06T02:02:21.415Z,103.79
2023-07-06T02:03:21.406Z,102.90
2023-07-06T02:04:21.356Z,99.83
2023-07-06T02:05:22.397Z,102.14
2023-07-06T02:06:22.421Z,102.87
2023-07-06T02:07:22.456Z,103.44
2023-07-06T02:08:22.485Z,99.21
2023-07-06T02:09:22.514Z,102.44
2023-07-06T02:10:21.562Z,104.55
2023-07-06T02:12:56.898Z,101.18
2023-07-06T02:14:40.672Z,25.00
2023-07-06T02:15:41.662Z,25.00
2023-07-06T02:16:41.731Z,25.00
2023-07-06T02:17:41.685Z,25.00
2023-07-06T02:18:41.650Z,25.00
2023-07-06T02:19:41.643Z,25.25
2023-07-06T02:20:41.624Z,24.71
2023-07-06T02:21:41.620Z,28.66
2023-07-06T02:22:41.626Z,28.73
2023-07-06T02:23:41.624Z,25.70
2023-07-06T02:24:40.630Z,30.01
2023-07-06T02:25:40.604Z,27.17
2023-07-06T02:26:41.585Z,29.39
2023-07-06T02:27:40.567Z,26.49
2023-07-06T02:28:41.620Z,25.95
2023-07-06T02:29:41.565Z,27.25
2023-07-06T02:30:40.585Z,26.42
2023-07-06T02:31:41.573Z,28.31
2023-07-06T02:32:40.667Z,26.75
2023-07-06T02:33:41.534Z,29.93
2023-07-06T02:34:41.542Z,26.47
2023-07-06T02:35:40.528Z,27.10
2023-07-06T02:36:40.535Z,26.78
2023-07-06T02:37:41.509Z,31.03
2023-07-06T02:38:40.512Z,25.00
2023-07-06T02:39:41.515Z,29.88
2023-07-06T02:40:40.503Z,30.45
2023-07-06T02:41:40.503Z,32.20
2023-07-06T02:42:40.487Z,31.44
2023-07-06T02:43:40.475Z,28.88
2023-07-06T02:44:41.483Z,30.10
2023-07-06T02:45:41.462Z,27.31
2023-07-06T02:46:41.484Z,30.02
2023-07-06T02:47:40.488Z,30.82
2023-07-06T02:48:40.460Z,28.73
2023-07-06T02:49:40.455Z,27.75
2023-07-06T02:50:40.428Z,28.35
2023-07-06T02:51:41.418Z,28.17
2023-07-06T02:52:41.420Z,29.39
2023-07-06T02:53:40.400Z,28.36
2023-07-06T02:54:41.422Z,29.20
2023-07-06T02:55:40.406Z,29.16
2023-07-06T02:56:41.381Z,27.96
2023-07-06T02:57:41.545Z,28.77
2023-07-06T02:58:40.377Z,28.81
2023-07-06T02:59:40.380Z,28.91
2023-07-06T03:00:41.392Z,28.42
2023-07-06T03:01:41.367Z,27.84
2023-07-06T03:02:41.469Z,29.60
2023-07-06T03:03:40.356Z,29.26
2023-07-06T03:04:41.345Z,28.47
2023-07-06T03:05:41.427Z,28.75
2023-07-06T03:06:40.365Z,28.34
2023-07-06T03:07:40.365Z,31.20
2023-07-06T03:08:41.337Z,27.38
2023-07-06T03:09:41.324Z,29.98
2023-07-06T03:10:41.331Z,28.09
2023-07-06T03:11:41.294Z,28.82
2023-07-06T03:12:40.390Z,29.62
2023-07-06T03:13:41.356Z,28.45
2023-07-06T03:14:41.339Z,27.73
2023-07-06T03:15:40.340Z,25.40
2023-07-06T03:16:41.742Z,27.82
2023-07-06T03:17:40.496Z,27.95
2023-07-06T03:18:41.400Z,27.81
2023-07-06T03:19:40.441Z,29.24
2023-07-06T03:20:40.434Z,28.84
2023-07-06T03:21:40.447Z,29.91
2023-07-06T03:22:40.478Z,30.50
2023-07-06T03:23:40.484Z,28.18
2023-07-06T03:24:41.518Z,28.15
2023-07-06T03:25:41.523Z,32.31
2023-07-06T03:26:40.714Z,30.01
2023-07-06T03:27:40.577Z,31.34
2023-07-06T03:28:41.161Z,31.28
2023-07-06T03:29:40.619Z,29.91
2023-07-06T03:30:41.646Z,28.60
2023-07-06T03:31:41.718Z,30.24
2023-07-06T03:32:41.757Z,29.42
2023-07-06T03:33:40.711Z,29.89
2023-07-06T03:34:41.736Z,30.77
2023-07-06T03:35:41.748Z,27.59
2023-07-06T03:36:41.812Z,30.13
2023-07-06T03:37:41.798Z,32.31
2023-07-06T03:38:40.834Z,28.49
2023-07-06T03:39:40.846Z,31.09
2023-07-06T03:40:40.865Z,28.88
2023-07-06T03:41:41.875Z,30.86
2023-07-06T03:42:40.914Z,29.67
2023-07-06T03:43:41.952Z,30.19
2023-07-06T03:44:41.967Z,29.27
2023-07-06T03:45:41.067Z,28.19
2023-07-06T03:46:41.009Z,27.51
2023-07-06T03:47:41.135Z,29.94
2023-07-06T03:48:41.089Z,27.96
2023-07-06T03:49:41.094Z,30.68
2023-07-06T03:50:41.129Z,29.31
2023-07-06T03:51:41.143Z,29.75
2023-07-06T03:52:41.193Z,26.97
2023-07-06T03:53:41.216Z,28.31
2023-07-06T03:54:42.252Z,27.82
2023-07-06T03:55:42.438Z,28.23
2023-07-06T03:56:41.309Z,27.54
2023-07-06T03:57:54.660Z,30.15
2023-07-06T03:58:42.318Z,30.34
2023-07-06T03:59:42.326Z,29.95
2023-07-06T04:00:42.305Z,30.61
2023-07-06T04:01:41.327Z,28.94
2023-07-06T04:02:42.335Z,28.06
2023-07-06T04:03:41.364Z,29.85
2023-07-06T04:04:41.365Z,29.95
2023-07-06T04:05:41.284Z,25.17
2023-07-06T04:06:41.261Z,27.16
2023-07-06T04:07:42.271Z,25.68
2023-07-06T04:08:43.361Z,28.53
2023-07-06T04:09:42.243Z,28.60
2023-07-06T04:10:42.245Z,30.38
2023-07-06T04:11:42.255Z,27.10
2023-07-06T04:12:42.241Z,26.51
2023-07-06T04:13:42.252Z,28.64
2023-07-06T04:14:42.275Z,32.39
2023-07-06T04:15:41.382Z,28.10
2023-07-06T04:16:42.372Z,29.45
2023-07-06T04:17:43.940Z,28.74
2023-07-06T04:18:42.353Z,33.74
2023-07-06T04:19:41.339Z,34.61
2023-07-06T04:20:41.359Z,31.01
2023-07-06T04:21:42.331Z,29.82
2023-07-06T04:22:41.318Z,29.48
2023-07-06T04:23:43.875Z,28.87
2023-07-06T04:24:42.303Z,29.11
2023-07-06T04:25:42.307Z,29.70
2023-07-06T04:26:42.298Z,30.11
2023-07-06T04:27:42.270Z,29.98
2023-07-06T04:28:42.277Z,31.00
2023-07-06T04:29:42.269Z,27.48
2023-07-06T04:30:42.263Z,28.63
2023-07-06T04:31:42.305Z,30.76
2023-07-06T04:32:42.262Z,29.36
2023-07-06T04:33:41.236Z,31.15
2023-07-06T04:34:41.218Z,28.94
2023-07-06T04:35:42.279Z,30.68
2023-07-06T04:36:42.249Z,29.89
2023-07-06T04:37:41.219Z,28.00
2023-07-06T04:38:41.198Z,30.81
2023-07-06T04:39:41.183Z,28.54
2023-07-06T04:40:41.186Z,30.86
2023-07-06T04:41:42.170Z,32.16
2023-07-06T04:42:42.162Z,30.18
2023-07-06T04:43:42.173Z,28.70
2023-07-06T04:44:42.154Z,32.60
2023-07-06T04:45:42.158Z,30.16
2023-07-06T04:46:41.172Z,31.91
2023-07-06T04:47:41.188Z,29.06
2023-07-06T04:48:42.154Z,30.42
2023-07-06T04:49:42.127Z,27.73
2023-07-06T04:50:41.174Z,31.72
2023-07-06T04:51:41.119Z,29.71
2023-07-06T04:52:41.127Z,29.17
2023-07-06T04:53:42.099Z,28.20
2023-07-06T04:54:42.097Z,30.47
2023-07-06T04:55:42.079Z,25.01
2023-07-06T04:56:42.090Z,29.82
2023-07-06T04:57:41.059Z,30.72
2023-07-06T04:58:42.061Z,29.17
2023-07-06T04:59:42.140Z,29.26
2023-07-06T05:00:41.541Z,29.38
2023-07-06T05:01:42.183Z,29.37
2023-07-06T05:02:41.260Z,28.71
2023-07-06T05:03:41.281Z,33.66
2023-07-06T05:04:42.304Z,31.57
2023-07-06T05:05:41.440Z,28.43
2023-07-06T05:06:41.405Z,29.83
2023-07-06T05:07:42.427Z,27.97
2023-07-06T05:08:41.483Z,27.31
2023-07-06T05:09:42.503Z,28.01
2023-07-06T05:10:42.543Z,28.17
2023-07-06T05:11:42.571Z,27.35
2023-07-06T05:12:42.594Z,30.14
2023-07-06T05:13:42.664Z,30.10
2023-07-06T05:14:42.247Z,27.50
2023-07-06T05:15:41.727Z,27.91
2023-07-06T05:16:42.806Z,28.70
2023-07-06T05:17:41.801Z,28.40
2023-07-06T05:18:42.843Z,27.90
2023-07-06T05:19:41.856Z,27.63
2023-07-06T05:20:42.875Z,25.00
2023-07-06T05:21:42.909Z,29.95
2023-07-06T05:22:41.919Z,29.27
2023-07-06T05:23:41.956Z,31.43
2023-07-06T05:24:43.024Z,32.03
2023-07-06T05:25:43.027Z,28.18
2023-07-06T05:26:43.056Z,28.69
2023-07-06T05:27:43.089Z,30.20
2023-07-06T05:28:43.116Z,30.51
2023-07-06T05:29:42.127Z,29.98
2023-07-06T05:30:42.193Z,28.35
2023-07-06T05:31:43.197Z,26.28
2023-07-06T05:32:42.250Z,31.27
2023-07-06T05:33:43.231Z,29.13
2023-07-06T05:34:43.258Z,27.64
2023-07-06T05:35:43.308Z,29.66
2023-07-06T05:36:42.335Z,26.77
2023-07-06T05:37:42.350Z,28.82
2023-07-06T05:38:42.395Z,29.29
2023-07-06T05:39:43.429Z,28.30
2023-07-06T05:40:43.505Z,28.27
2023-07-06T05:41:43.469Z,27.12
2023-07-06T05:42:42.513Z,27.73
2023-07-06T05:43:42.536Z,28.89
2023-07-06T05:44:43.560Z,27.13
2023-07-06T05:45:43.596Z,27.73
2023-07-06T05:46:43.672Z,28.65
2023-07-06T05:47:42.641Z,28.86
2023-07-06T05:48:43.656Z,31.32
2023-07-06T05:49:42.680Z,28.03
2023-07-06T05:50:42.712Z,25.01
2023-07-06T05:51:42.721Z,29.21
2023-07-06T05:52:43.741Z,28.04
2023-07-06T05:53:42.749Z,29.21
2023-07-06T05:54:43.767Z,26.87
2023-07-06T05:55:43.802Z,28.81
2023-07-06T05:56:42.852Z,29.32
2023-07-06T05:57:43.855Z,30.17
2023-07-06T05:58:42.887Z,29.44
2023-07-06T05:59:42.886Z,30.17
2023-07-06T06:00:42.932Z,26.93
2023-07-06T06:01:42.988Z,30.57
2023-07-06T06:02:42.973Z,28.75
2023-07-06T06:03:43.021Z,27.87
2023-07-06T06:04:42.998Z,27.55
2023-07-06T06:05:43.017Z,25.41
2023-07-06T06:06:43.907Z,29.08
2023-07-06T06:07:44.053Z,27.48
2023-07-06T06:08:44.061Z,26.96
2023-07-06T06:09:43.093Z,27.85
2023-07-06T06:10:43.116Z,26.82
2023-07-06T06:11:43.137Z,27.71
2023-07-06T06:12:44.298Z,29.11
2023-07-06T06:13:44.206Z,29.48
2023-07-06T06:14:43.180Z,28.86
2023-07-06T06:15:44.208Z,29.40
2023-07-06T06:16:44.242Z,30.64
2023-07-06T06:17:43.340Z,28.69
2023-07-06T06:18:44.274Z,29.06
2023-07-06T06:19:43.285Z,29.41
2023-07-06T06:20:43.336Z,31.12
2023-07-06T06:21:43.352Z,28.71
2023-07-06T06:22:44.363Z,31.26
2023-07-06T06:23:43.452Z,29.84
2023-07-06T06:24:44.396Z,30.06
2023-07-06T06:25:43.399Z,30.86
2023-07-06T06:26:44.416Z,27.61
2023-07-06T06:27:44.427Z,27.70
2023-07-06T06:28:44.502Z,31.11
2023-07-06T06:29:43.537Z,28.15
2023-07-06T06:30:43.506Z,28.97
2023-07-06T06:31:44.574Z,28.67
2023-07-06T06:32:44.613Z,28.29
2023-07-06T06:33:44.567Z,28.99
2023-07-06T06:34:43.612Z,28.83
2023-07-06T06:35:44.607Z,25.00
2023-07-06T06:36:44.638Z,29.50
2023-07-06T06:37:43.659Z,26.89
2023-07-06T06:38:44.669Z,27.27
2023-07-06T06:39:43.685Z,31.61
2023-07-06T06:40:43.728Z,28.61
2023-07-06T06:41:43.729Z,29.49
2023-07-06T06:42:44.750Z,31.01
2023-07-06T06:43:44.776Z,29.23
2023-07-06T06:44:43.825Z,27.85
2023-07-06T06:45:44.814Z,26.71
2023-07-06T06:46:44.846Z,27.15
2023-07-06T06:47:43.906Z,27.73
2023-07-06T06:48:43.880Z,29.94
2023-07-06T06:49:44.918Z,30.64
2023-07-06T06:50:43.933Z,29.01
2023-07-06T06:51:44.939Z,29.43
2023-07-06T06:52:44.970Z,25.24
2023-07-06T06:53:44.971Z,29.26
2023-07-06T06:54:44.009Z,26.64
2023-07-06T06:55:44.016Z,31.50
2023-07-06T06:56:44.029Z,31.97
2023-07-06T06:57:44.052Z,26.96
2023-07-06T06:58:45.267Z,29.99
2023-07-06T06:59:45.104Z,29.42
2023-07-06T07:00:45.163Z,28.31
2023-07-06T07:01:44.156Z,30.09
2023-07-06T07:02:44.297Z,25.00
2023-07-06T07:03:44.241Z,29.08
2023-07-06T07:04:45.180Z,29.94
2023-07-06T07:05:44.208Z,28.78
2023-07-06T07:06:45.208Z,26.54
2023-07-06T07:07:44.254Z,30.04
2023-07-06T07:08:45.247Z,29.15
2023-07-06T07:09:44.269Z,27.28
2023-07-06T07:10:45.295Z,29.28
2023-07-06T07:11:45.392Z,29.17
2023-07-06T07:12:45.303Z,28.49
2023-07-06T07:13:44.368Z,27.94
2023-07-06T07:14:44.356Z,30.84
2023-07-06T07:15:44.386Z,26.93
2023-07-06T07:16:45.554Z,30.19
2023-07-06T07:17:44.403Z,29.09
2023-07-06T07:18:44.405Z,30.08
2023-07-06T07:19:47.878Z,28.79
2023-07-06T07:20:44.421Z,29.11
2023-07-06T07:21:44.399Z,29.61
2023-07-06T07:22:44.388Z,29.57
2023-07-06T07:23:44.420Z,29.26
2023-07-06T07:24:45.501Z,28.84
2023-07-06T07:25:45.385Z,28.92
2023-07-06T07:26:44.394Z,27.90
2023-07-06T07:27:45.361Z,28.69
2023-07-06T07:28:45.359Z,27.04
2023-07-06T07:29:45.358Z,26.71
2023-07-06T07:30:44.343Z,28.47
2023-07-06T07:31:44.395Z,28.48
2023-07-06T07:32:45.392Z,25.33
2023-07-06T07:33:45.335Z,28.29
2023-07-06T07:34:45.331Z,30.51
2023-07-06T07:35:45.321Z,32.41
2023-07-06T07:36:45.307Z,30.23
2023-07-06T07:37:45.312Z,26.55
2023-07-06T07:38:45.304Z,30.27
2023-07-06T07:39:45.291Z,27.99
2023-07-06T07:40:45.287Z,28.40
2023-07-06T07:41:44.318Z,26.42
2023-07-06T07:42:45.279Z,27.28
2023-07-06T07:43:45.266Z,29.41
2023-07-06T07:44:44.283Z,30.04
2023-07-06T07:45:45.277Z,27.93
2023-07-06T07:46:45.507Z,30.23
2023-07-06T07:47:45.313Z,26.24
2023-07-06T07:48:45.334Z,27.79
2023-07-06T07:49:45.286Z,27.07
2023-07-06T07:50:44.298Z,27.81
2023-07-06T07:51:45.314Z,26.57
2023-07-06T07:52:44.332Z,29.08
2023-07-06T07:53:44.348Z,27.01
2023-07-06T07:54:45.380Z,28.52
2023-07-06T07:55:45.392Z,28.43
2023-07-06T07:56:44.480Z,26.52
2023-07-06T07:57:44.496Z,26.91
2023-07-06T07:58:45.564Z,30.55
2023-07-06T07:59:45.606Z,26.31
2023-07-06T08:00:45.689Z,28.81
2023-07-06T08:01:45.685Z,28.99
2023-07-06T08:02:45.776Z,30.51
2023-07-06T08:03:45.807Z,30.56
2023-07-06T08:05:44.786Z,31.27
2023-07-06T08:06:45.809Z,30.54
2023-07-06T08:07:44.803Z,30.98
2023-07-06T08:08:44.819Z,30.98
2023-07-06T08:09:44.824Z,30.56
2023-07-06T08:10:44.805Z,30.76
2023-07-06T08:11:45.820Z,29.78
2023-07-06T08:12:45.821Z,28.53
2023-07-06T08:13:44.891Z,29.16
2023-07-06T08:14:44.820Z,27.49
2023-07-06T08:15:44.837Z,29.35
2023-07-06T08:16:45.820Z,29.44
2023-07-06T08:17:45.827Z,27.15
2023-07-06T08:18:45.893Z,31.37
2023-07-06T08:20:24.254Z,25.61
2023-07-06T08:21:11.032Z,25.95
2023-07-06T08:22:45.861Z,26.34
2023-07-06T08:23:45.846Z,27.69
2023-07-06T08:24:45.837Z,27.92
2023-07-06T08:25:45.842Z,24.63
2023-07-06T08:26:45.832Z,19.90
2023-07-06T08:27:45.830Z,29.03
2023-07-06T08:28:45.839Z,27.74
2023-07-06T08:29:45.806Z,26.15
2023-07-06T08:30:44.843Z,28.26
2023-07-06T08:31:45.835Z,27.94
2023-07-06T08:32:45.874Z,31.37
2023-07-06T08:33:44.782Z,27.43
2023-07-06T08:34:45.791Z,25.00
2023-07-06T08:35:44.763Z,26.74
2023-07-06T08:36:44.784Z,27.75
2023-07-06T08:37:44.755Z,27.13
2023-07-06T08:38:45.118Z,26.48
2023-07-06T08:39:44.752Z,29.03
2023-07-06T08:40:44.729Z,28.63
2023-07-06T08:41:45.746Z,27.66
2023-07-06T08:42:45.754Z,28.11
2023-07-06T08:43:45.720Z,32.06
2023-07-06T08:44:44.706Z,28.23
2023-07-06T08:45:44.730Z,28.80
2023-07-06T08:46:44.770Z,32.40
2023-07-06T08:47:44.720Z,30.24
2023-07-06T08:48:44.702Z,31.07
2023-07-06T08:49:44.695Z,28.58
2023-07-06T08:50:45.681Z,27.26
2023-07-06T08:51:45.683Z,26.86
2023-07-06T08:52:45.059Z,26.71
2023-07-06T08:53:45.753Z,27.48
2023-07-06T08:54:44.804Z,26.02
2023-07-06T08:55:45.841Z,25.00
2023-07-06T08:56:45.936Z,29.95
2023-07-06T08:57:44.940Z,28.19
2023-07-06T08:58:44.998Z,29.15
2023-07-06T08:59:45.031Z,29.28
2023-07-06T09:00:45.086Z,26.20
2023-07-06T09:01:46.258Z,27.22
2023-07-06T09:02:46.255Z,26.25
2023-07-06T09:03:45.261Z,30.05
2023-07-06T09:04:45.256Z,29.30
2023-07-06T09:05:45.295Z,30.66
2023-07-06T09:06:45.365Z,30.90
2023-07-06T09:07:46.410Z,27.58
2023-07-06T09:08:47.202Z,26.54
2023-07-06T09:09:45.487Z,28.04
2023-07-06T09:10:46.549Z,30.13
2023-07-06T09:11:45.608Z,28.76
2023-07-06T09:12:46.644Z,28.93
2023-07-06T09:13:45.712Z,29.84
2023-07-06T09:14:46.691Z,30.96
2023-07-06T09:15:46.729Z,29.69
2023-07-06T09:16:45.796Z,29.19
2023-07-06T09:17:46.894Z,31.26
2023-07-06T09:18:46.848Z,30.81
2023-07-06T09:19:45.988Z,27.96
2023-07-06T09:20:45.900Z,25.31
2023-07-06T09:21:46.938Z,27.03
2023-07-06T09:22:46.965Z,26.48
2023-07-06T09:23:46.015Z,28.80
2023-07-06T09:24:46.091Z,27.53
2023-07-06T09:25:46.103Z,27.69
2023-07-06T09:26:47.148Z,25.58
2023-07-06T09:27:47.194Z,28.03
2023-07-06T09:28:46.204Z,28.32
2023-07-06T09:29:46.241Z,27.55
2023-07-06T09:30:47.318Z,28.87
2023-07-06T09:31:46.317Z,29.21
2023-07-06T09:32:46.527Z,27.10
2023-07-06T09:33:46.391Z,28.32
2023-07-06T09:34:46.734Z,26.45
2023-07-06T09:35:46.468Z,26.48
2023-07-06T09:36:47.494Z,31.62
2023-07-06T09:37:46.533Z,27.31
2023-07-06T09:38:47.555Z,30.09
2023-07-06T09:39:47.575Z,28.79
2023-07-06T09:40:47.659Z,29.54
2023-07-06T09:41:47.677Z,27.29
2023-07-06T09:42:46.667Z,26.77
2023-07-06T09:43:47.748Z,29.63
2023-07-06T09:44:47.733Z,28.11
2023-07-06T09:45:46.760Z,26.94
2023-07-06T09:46:46.824Z,29.58
2023-07-06T09:47:46.888Z,31.18
2023-07-06T09:48:46.880Z,30.67
2023-07-06T09:49:47.926Z,30.00
2023-07-06T09:50:46.959Z,30.49
2023-07-06T09:51:47.022Z,29.97
2023-07-06T09:52:48.053Z,29.46
2023-07-06T09:53:47.103Z,31.09
2023-07-06T09:54:48.150Z,30.29
2023-07-06T09:55:48.193Z,29.63
2023-07-06T09:56:48.299Z,28.13
2023-07-06T09:57:47.282Z,28.60
2023-07-06T09:58:48.332Z,30.17
2023-07-06T09:59:47.374Z,27.73
2023-07-06T10:00:48.445Z,27.99
2023-07-06T10:01:48.464Z,27.45
2023-07-06T10:02:47.547Z,26.51
2023-07-06T10:03:48.533Z,25.98
2023-07-06T10:04:48.650Z,27.12
2023-07-06T10:05:47.556Z,26.08
2023-07-06T10:06:48.602Z,29.35
2023-07-06T10:07:48.599Z,27.95
2023-07-06T10:08:48.621Z,29.92
2023-07-06T10:09:47.654Z,27.38
2023-07-06T10:10:48.698Z,30.36
2023-07-06T10:11:47.706Z,29.41
2023-07-06T10:12:48.756Z,30.01
2023-07-06T10:13:48.887Z,25.60
2023-07-06T10:14:47.777Z,27.73
2023-07-06T10:15:47.814Z,26.44
2023-07-06T10:16:48.919Z,28.80
2023-07-06T10:17:48.911Z,27.80
2023-07-06T10:18:47.872Z,25.00
2023-07-06T10:19:47.876Z,27.28
2023-07-06T10:20:47.925Z,27.91
2023-07-06T10:21:47.934Z,28.40
2023-07-06T10:22:47.948Z,27.53
2023-07-06T10:23:47.956Z,27.04
2023-07-06T10:24:48.967Z,26.13
2023-07-06T10:25:48.990Z,26.43
2023-07-06T10:26:47.986Z,28.82
2023-07-06T10:27:49.004Z,26.23
2023-07-06T10:28:48.108Z,26.76
2023-07-06T10:29:48.030Z,27.54
2023-07-06T10:30:48.045Z,26.34
2023-07-06T10:31:49.088Z,26.05
2023-07-06T10:32:49.103Z,29.10
2023-07-06T10:33:49.083Z,27.99
2023-07-06T10:34:48.090Z,28.77
2023-07-06T10:35:48.100Z,27.94
2023-07-06T10:36:48.144Z,28.08
2023-07-06T10:37:49.123Z,29.85
2023-07-06T10:38:49.116Z,27.19
2023-07-06T10:39:48.114Z,25.72
2023-07-06T10:40:49.114Z,27.45
2023-07-06T10:41:48.111Z,26.98
2023-07-06T10:42:48.101Z,27.19
2023-07-06T10:43:48.094Z,25.30
2023-07-06T10:44:49.163Z,25.04
2023-07-06T10:45:49.122Z,25.88
2023-07-06T10:46:48.118Z,28.39
2023-07-06T10:47:49.167Z,26.91
2023-07-06T10:48:48.124Z,25.15
2023-07-06T10:49:48.137Z,27.96
2023-07-06T10:50:48.124Z,27.71
2023-07-06T10:51:48.146Z,29.12
2023-07-06T10:52:49.141Z,26.56
2023-07-06T10:53:49.156Z,26.25
2023-07-06T10:54:48.263Z,27.58
2023-07-06T10:55:49.189Z,28.14
2023-07-06T10:56:49.215Z,28.09
2023-07-06T10:57:48.207Z,27.22
2023-07-06T10:58:49.211Z,29.64
2023-07-06T10:59:48.226Z,25.19
2023-07-06T11:00:48.273Z,28.11
2023-07-06T11:01:49.310Z,27.22
2023-07-06T11:02:48.337Z,26.56
2023-07-06T11:03:49.291Z,27.18
2023-07-06T11:04:49.268Z,28.62
2023-07-06T11:05:48.308Z,27.15
2023-07-06T11:06:48.387Z,28.35
2023-07-06T11:07:48.455Z,28.67
2023-07-06T11:08:48.507Z,28.91
2023-07-06T11:09:48.558Z,28.69
2023-07-06T11:10:48.602Z,31.12
2023-07-06T11:11:48.681Z,27.84
2023-07-06T11:12:48.722Z,27.42
2023-07-06T11:13:49.876Z,27.33
2023-07-06T11:14:48.854Z,28.01
2023-07-06T11:15:50.163Z,29.06
2023-07-06T11:16:49.016Z,27.14
2023-07-06T11:17:49.159Z,25.48
2023-07-06T11:18:49.096Z,26.62
2023-07-06T11:19:49.169Z,26.08
2023-07-06T11:20:50.220Z,25.00
2023-07-06T11:21:49.290Z,27.17
2023-07-06T11:22:50.334Z,26.65
2023-07-06T11:23:50.404Z,25.00
2023-07-06T11:24:49.470Z,28.14
2023-07-06T11:25:49.491Z,26.33
2023-07-06T11:26:50.547Z,27.29
2023-07-06T11:27:49.616Z,27.06
2023-07-06T11:28:50.667Z,25.00
2023-07-06T11:29:50.720Z,28.92
2023-07-06T11:30:50.784Z,25.42
2023-07-06T11:31:49.982Z,29.21
2023-07-06T11:32:49.945Z,28.14
2023-07-06T11:33:50.950Z,27.00
2023-07-06T11:34:51.000Z,27.43
2023-07-06T11:35:51.092Z,25.99
2023-07-06T11:36:50.114Z,27.65
2023-07-06T11:37:58.354Z,28.17
2023-07-06T11:38:51.176Z,28.34
2023-07-06T11:39:50.163Z,28.30
2023-07-06T11:40:51.149Z,28.27
2023-07-06T11:41:51.152Z,27.02
2023-07-06T11:42:51.158Z,25.17
2023-07-06T11:43:50.145Z,27.89
2023-07-06T11:44:50.137Z,25.94
2023-07-06T11:45:51.126Z,25.00
2023-07-06T11:46:51.156Z,26.46
2023-07-06T11:47:50.211Z,27.56
2023-07-06T11:48:51.182Z,25.05
2023-07-06T11:49:50.235Z,26.65
2023-07-06T11:50:50.318Z,26.03
2023-07-06T11:51:51.343Z,26.94
2023-07-06T11:52:51.381Z,29.39
2023-07-06T11:53:50.420Z,28.20
2023-07-06T11:54:50.582Z,30.56
2023-07-06T11:55:51.537Z,28.83
2023-07-06T11:56:51.635Z,29.23
2023-07-06T11:57:51.670Z,32.48
2023-07-06T11:58:50.671Z,26.81
2023-07-06T11:59:50.735Z,29.45
2023-07-06T12:00:51.815Z,28.12
2023-07-06T12:01:51.835Z,26.68
2023-07-06T12:02:51.920Z,27.88
2023-07-06T12:03:51.018Z,27.20
2023-07-06T12:04:52.017Z,28.19
2023-07-06T12:05:52.534Z,28.32
2023-07-06T12:06:51.099Z,28.05
2023-07-06T12:07:52.145Z,27.37
2023-07-06T12:08:52.201Z,28.00
2023-07-06T12:09:51.238Z,29.28
2023-07-06T12:10:52.290Z,27.51
2023-07-06T12:11:52.350Z,29.30
2023-07-06T12:12:52.401Z,27.58
2023-07-06T12:13:51.487Z,29.54
2023-07-06T12:14:51.493Z,25.00
2023-07-06T12:15:51.574Z,26.89
2023-07-06T12:16:52.644Z,25.70
2023-07-06T12:17:51.754Z,25.00
2023-07-06T12:18:51.713Z,30.24
2023-07-06T12:19:52.797Z,30.39
2023-07-06T12:20:52.849Z,29.83
2023-07-06T12:21:52.901Z,27.37
2023-07-06T12:22:51.964Z,25.00
2023-07-06T12:23:53.048Z,27.96
2023-07-06T12:24:53.071Z,30.83
2023-07-06T12:25:52.129Z,32.16
2023-07-06T12:26:52.179Z,25.67
2023-07-06T12:27:52.288Z,28.97
2023-07-06T12:28:54.926Z,32.52
2023-07-06T12:29:53.305Z,34.92
2023-07-06T12:30:52.307Z,49.30
2023-07-06T12:31:53.276Z,54.70
2023-07-06T12:32:53.276Z,41.64
2023-07-06T12:33:53.255Z,32.42
2023-07-06T12:34:53.257Z,32.90
2023-07-06T12:35:53.263Z,34.31
2023-07-06T12:36:52.229Z,37.49
2023-07-06T12:37:52.230Z,37.23
2023-07-06T12:38:53.931Z,37.55
2023-07-06T12:39:52.222Z,35.78
2023-07-06T12:40:53.227Z,34.61
2023-07-06T12:41:53.194Z,34.19
2023-07-06T12:42:52.188Z,34.70
2023-07-06T12:43:53.197Z,38.80
2023-07-06T12:44:52.233Z,35.65
2023-07-06T12:45:52.259Z,35.05
2023-07-06T12:46:53.267Z,33.23
2023-07-06T12:47:53.165Z,34.58
2023-07-06T12:48:52.148Z,35.88
2023-07-06T12:50:52.142Z,36.24
2023-07-06T12:51:52.171Z,37.03
2023-07-06T12:52:52.149Z,37.09
2023-07-06T12:53:53.129Z,38.18